createdAt,value
2023-05-12T00:00:26.721Z,644.00
2023-05-12T00:01:28.078Z,645.00
2023-05-12T00:02:27.341Z,646.00
2023-05-12T00:03:27.775Z,645.00
2023-05-12T00:04:27.068Z,643.00
2023-05-12T00:05:27.686Z,645.00
2023-05-12T00:06:27.700Z,644.00
2023-05-12T00:07:26.705Z,645.00
2023-05-12T00:08:26.714Z,642.00
2023-05-12T00:09:26.707Z,643.00
2023-05-12T00:10:27.723Z,644.00
2023-05-12T00:11:26.717Z,647.00
2023-05-12T00:12:26.714Z,648.00
2023-05-12T00:13:27.772Z,645.00
2023-05-12T00:14:26.728Z,645.00
2023-05-12T00:15:26.717Z,646.00
2023-05-12T00:16:26.869Z,646.00
2023-05-12T00:17:27.826Z,646.00
2023-05-12T00:18:27.755Z,644.00
2023-05-12T00:19:26.747Z,643.00
2023-05-12T00:20:27.733Z,645.00
2023-05-12T00:21:27.772Z,648.00
2023-05-12T00:22:27.741Z,649.00
2023-05-12T00:23:26.752Z,645.00
2023-05-12T00:24:26.786Z,645.00
2023-05-12T00:25:27.773Z,643.00
2023-05-12T00:26:26.811Z,642.00
2023-05-12T00:27:26.806Z,638.00
2023-05-12T00:28:27.800Z,640.00
2023-05-12T00:29:26.805Z,642.00
2023-05-12T00:30:27.802Z,645.00
2023-05-12T00:31:27.854Z,648.00
2023-05-12T00:32:27.934Z,642.00
2023-05-12T00:33:26.819Z,640.00
2023-05-12T00:34:27.815Z,641.00
2023-05-12T00:35:26.817Z,642.00
2023-05-12T00:36:27.854Z,639.00
2023-05-12T00:37:27.824Z,643.00
2023-05-12T00:38:26.819Z,643.00
2023-05-12T00:39:27.841Z,646.00
2023-05-12T00:40:27.912Z,645.00
2023-05-12T00:41:27.842Z,646.00
2023-05-12T00:42:26.862Z,645.00
2023-05-12T00:43:26.866Z,646.00
2023-05-12T00:44:27.860Z,645.00
2023-05-12T00:45:26.902Z,644.00
2023-05-12T00:46:26.905Z,642.00
2023-05-12T00:47:26.934Z,643.00
2023-05-12T00:48:26.911Z,643.00
2023-05-12T00:49:26.891Z,642.00
2023-05-12T00:50:27.916Z,639.00
2023-05-12T00:51:26.894Z,641.00
2023-05-12T00:52:27.905Z,640.00
2023-05-12T00:53:37.583Z,639.00
2023-05-12T00:54:27.968Z,638.00
2023-05-12T00:55:26.889Z,639.00
2023-05-12T00:56:26.941Z,640.00
2023-05-12T00:57:27.927Z,639.00
2023-05-12T00:58:27.863Z,639.00
2023-05-12T00:59:26.866Z,636.00
2023-05-12T01:00:26.856Z,635.00
2023-05-12T01:01:27.921Z,637.00
2023-05-12T01:02:27.992Z,639.00
2023-05-12T01:03:27.942Z,637.00
2023-05-12T01:04:26.948Z,636.00
2023-05-12T01:05:27.805Z,636.00
2023-05-12T01:06:26.813Z,638.00
2023-05-12T01:07:26.800Z,638.00
2023-05-12T01:08:26.784Z,637.00
2023-05-12T01:09:26.801Z,639.00
2023-05-12T01:10:26.786Z,638.00
2023-05-12T01:11:27.798Z,636.00
2023-05-12T01:12:27.767Z,637.00
2023-05-12T01:13:27.773Z,637.00
2023-05-12T01:14:26.752Z,637.00
2023-05-12T01:15:27.818Z,647.00
2023-05-12T01:16:27.741Z,634.00
2023-05-12T01:17:27.851Z,631.00
2023-05-12T01:18:26.921Z,636.00
2023-05-12T01:19:27.723Z,635.00
2023-05-12T01:20:26.754Z,635.00
2023-05-12T01:21:27.706Z,633.00
2023-05-12T01:22:27.711Z,637.00
2023-05-12T01:23:27.708Z,637.00
2023-05-12T01:24:26.690Z,641.00
2023-05-12T01:25:26.677Z,641.00
2023-05-12T01:26:27.683Z,635.00
2023-05-12T01:27:26.677Z,636.00
2023-05-12T01:28:26.666Z,637.00
2023-05-12T01:29:26.645Z,635.00
2023-05-12T01:30:26.638Z,637.00
2023-05-12T01:31:26.692Z,634.00
2023-05-12T01:32:26.639Z,632.00
2023-05-12T01:33:26.636Z,630.00
2023-05-12T01:34:26.610Z,633.00
2023-05-12T01:35:27.602Z,635.00
2023-05-12T01:36:26.617Z,636.00
2023-05-12T01:37:27.571Z,636.00
2023-05-12T01:38:27.600Z,637.00
2023-05-12T01:39:26.593Z,634.00
2023-05-12T01:40:27.574Z,632.00
2023-05-12T01:41:26.549Z,632.00
2023-05-12T01:42:27.536Z,632.00
2023-05-12T01:43:27.529Z,633.00
2023-05-12T01:44:26.534Z,632.00
2023-05-12T01:45:26.526Z,632.00
2023-05-12T01:46:27.580Z,634.00
2023-05-12T01:47:27.547Z,636.00
2023-05-12T01:48:27.490Z,638.00
2023-05-12T01:49:26.507Z,638.00
2023-05-12T01:50:27.495Z,635.00
2023-05-12T01:51:27.502Z,641.00
2023-05-12T01:52:27.503Z,639.00
2023-05-12T01:53:27.482Z,637.00
2023-05-12T01:54:26.485Z,636.00
2023-05-12T01:55:27.453Z,638.00
2023-05-12T01:56:26.456Z,642.00
2023-05-12T01:57:26.441Z,647.00
2023-05-12T01:58:27.422Z,640.00
2023-05-12T01:59:27.492Z,638.00
2023-05-12T02:00:27.430Z,637.00
2023-05-12T02:01:27.417Z,637.00
2023-05-12T02:02:26.506Z,636.00
2023-05-12T02:03:26.443Z,636.00
2023-05-12T02:04:27.386Z,636.00
2023-05-12T02:05:27.375Z,634.00
2023-05-12T02:06:26.454Z,635.00
2023-05-12T02:07:26.362Z,634.00
2023-05-12T02:08:26.400Z,634.00
2023-05-12T02:09:27.470Z,634.00
2023-05-12T02:10:27.674Z,637.00
2023-05-12T02:11:27.819Z,642.00
2023-05-12T02:12:26.952Z,639.00
2023-05-12T02:13:28.529Z,639.00
2023-05-12T02:14:27.343Z,641.00
2023-05-12T02:15:26.596Z,639.00
2023-05-12T02:16:27.582Z,639.00
2023-05-12T02:17:27.991Z,640.00
2023-05-12T02:18:26.340Z,637.00
2023-05-12T02:19:26.286Z,636.00
2023-05-12T02:20:27.281Z,635.00
2023-05-12T02:21:26.271Z,642.00
2023-05-12T02:22:27.274Z,643.00
2023-05-12T02:23:27.284Z,644.00
2023-05-12T02:24:27.311Z,644.00
2023-05-12T02:25:27.231Z,643.00
2023-05-12T02:26:27.225Z,641.00
2023-05-12T02:27:26.228Z,643.00
2023-05-12T02:28:26.212Z,646.00
2023-05-12T02:29:27.235Z,643.00
2023-05-12T02:30:27.213Z,645.00
2023-05-12T02:31:27.218Z,641.00
2023-05-12T02:32:27.199Z,641.00
2023-05-12T02:33:26.186Z,638.00
2023-05-12T02:34:27.185Z,639.00
2023-05-12T02:35:27.239Z,640.00
2023-05-12T02:36:27.188Z,641.00
2023-05-12T02:37:26.177Z,639.00
2023-05-12T02:38:27.192Z,639.00
2023-05-12T02:39:26.173Z,638.00
2023-05-12T02:40:26.203Z,642.00
2023-05-12T02:41:27.184Z,637.00
2023-05-12T02:42:26.182Z,638.00
2023-05-12T02:43:27.178Z,638.00
2023-05-12T02:44:26.189Z,636.00
2023-05-12T02:45:27.157Z,637.00
2023-05-12T02:46:27.203Z,636.00
2023-05-12T02:47:26.173Z,638.00
2023-05-12T02:48:26.185Z,637.00
2023-05-12T02:49:26.185Z,640.00
2023-05-12T02:50:27.163Z,638.00
2023-05-12T02:51:26.161Z,637.00
2023-05-12T02:52:26.156Z,638.00
2023-05-12T02:53:27.187Z,641.00
2023-05-12T02:54:27.166Z,639.00
2023-05-12T02:55:27.168Z,642.00
2023-05-12T02:56:27.203Z,639.00
2023-05-12T02:57:27.181Z,639.00
2023-05-12T02:58:27.156Z,642.00
2023-05-12T02:59:26.162Z,643.00
2023-05-12T03:00:26.169Z,651.00
2023-05-12T03:01:26.176Z,643.00
2023-05-12T03:02:27.269Z,645.00
2023-05-12T03:03:27.269Z,644.00
2023-05-12T03:04:27.169Z,644.00
2023-05-12T03:05:27.165Z,642.00
2023-05-12T03:06:27.141Z,640.00
2023-05-12T03:07:26.170Z,636.00
2023-05-12T03:08:27.130Z,635.00
2023-05-12T03:09:26.156Z,638.00
2023-05-12T03:10:27.132Z,638.00
2023-05-12T03:11:26.152Z,638.00
2023-05-12T03:12:26.159Z,636.00
2023-05-12T03:13:27.145Z,633.00
2023-05-12T03:14:26.139Z,630.00
2023-05-12T03:15:27.170Z,631.00
2023-05-12T03:16:27.165Z,632.00
2023-05-12T03:17:27.227Z,634.00
2023-05-12T03:18:26.130Z,629.00
2023-05-12T03:19:26.141Z,631.00
2023-05-12T03:20:26.124Z,634.00
2023-05-12T03:21:27.105Z,635.00
2023-05-12T03:22:27.117Z,635.00
2023-05-12T03:23:26.130Z,633.00
2023-05-12T03:24:26.108Z,632.00
2023-05-12T03:25:27.111Z,633.00
2023-05-12T03:26:26.147Z,632.00
2023-05-12T03:27:27.115Z,631.00
2023-05-12T03:28:26.147Z,631.00
2023-05-12T03:29:27.151Z,633.00
2023-05-12T03:30:26.112Z,637.00
2023-05-12T03:31:27.223Z,638.00
2023-05-12T03:32:28.751Z,639.00
2023-05-12T03:33:27.116Z,637.00
2023-05-12T03:34:26.123Z,638.00
2023-05-12T03:35:26.099Z,638.00
2023-05-12T03:36:27.117Z,636.00
2023-05-12T03:37:26.064Z,632.00
2023-05-12T03:38:26.058Z,631.00
2023-05-12T03:39:27.068Z,629.00
2023-05-12T03:40:26.101Z,627.00
2023-05-12T03:41:26.079Z,621.00
2023-05-12T03:42:26.031Z,623.00
2023-05-12T03:43:27.030Z,625.00
2023-05-12T03:44:26.050Z,623.00
2023-05-12T03:45:27.042Z,624.00
2023-05-12T03:46:27.117Z,622.00
2023-05-12T03:47:29.023Z,620.00
2023-05-12T03:48:27.057Z,621.00
2023-05-12T03:49:25.992Z,621.00
2023-05-12T03:50:26.990Z,621.00
2023-05-12T03:51:27.051Z,624.00
2023-05-12T03:52:26.979Z,623.00
2023-05-12T03:53:26.989Z,624.00
2023-05-12T03:54:26.964Z,621.00
2023-05-12T03:55:25.963Z,620.00
2023-05-12T03:56:26.932Z,622.00
2023-05-12T03:57:26.967Z,626.00
2023-05-12T03:58:25.957Z,627.00
2023-05-12T03:59:26.912Z,625.00
2023-05-12T04:00:26.963Z,626.00
2023-05-12T04:01:26.901Z,624.00
2023-05-12T04:02:26.084Z,624.00
2023-05-12T04:03:26.956Z,625.00
2023-05-12T04:04:25.883Z,626.00
2023-05-12T04:05:25.870Z,624.00
2023-05-12T04:06:26.860Z,624.00
2023-05-12T04:07:26.867Z,623.00
2023-05-12T04:08:25.850Z,620.00
2023-05-12T04:09:26.864Z,621.00
2023-05-12T04:10:26.272Z,620.00
2023-05-12T04:11:26.837Z,619.00
2023-05-12T04:12:26.828Z,620.00
2023-05-12T04:13:25.807Z,619.00
2023-05-12T04:14:39.105Z,613.00
2023-05-12T04:15:26.892Z,614.00
2023-05-12T04:16:26.840Z,614.00
2023-05-12T04:17:25.866Z,613.00
2023-05-12T04:18:25.964Z,613.00
2023-05-12T04:19:26.751Z,613.00
2023-05-12T04:20:25.772Z,613.00
2023-05-12T04:21:25.766Z,611.00
2023-05-12T04:22:26.789Z,612.00
2023-05-12T04:23:25.756Z,615.00
2023-05-12T04:24:26.784Z,618.00
2023-05-12T04:25:26.727Z,616.00
2023-05-12T04:26:25.725Z,617.00
2023-05-12T04:27:26.720Z,619.00
2023-05-12T04:28:26.724Z,619.00
2023-05-12T04:29:26.712Z,619.00
2023-05-12T04:30:25.702Z,619.00
2023-05-12T04:31:26.717Z,619.00
2023-05-12T04:32:26.734Z,617.00
2023-05-12T04:33:25.684Z,614.00
2023-05-12T04:34:26.682Z,614.00
2023-05-12T04:35:26.660Z,613.00
2023-05-12T04:36:26.664Z,616.00
2023-05-12T04:37:26.653Z,618.00
2023-05-12T04:38:25.657Z,615.00
2023-05-12T04:39:26.621Z,614.00
2023-05-12T04:40:25.605Z,609.00
2023-05-12T04:41:25.597Z,607.00
2023-05-12T04:42:25.608Z,606.00
2023-05-12T04:44:25.607Z,602.00
2023-05-12T04:45:25.608Z,602.00
2023-05-12T04:46:26.595Z,602.00
2023-05-12T04:47:26.587Z,599.00
2023-05-12T04:48:26.595Z,597.00
2023-05-12T04:49:26.601Z,592.00
2023-05-12T04:50:26.554Z,594.00
2023-05-12T04:51:26.554Z,597.00
2023-05-12T04:52:25.533Z,597.00
2023-05-12T04:53:25.533Z,600.00
2023-05-12T04:54:25.532Z,602.00
2023-05-12T04:55:25.514Z,602.00
2023-05-12T04:56:25.484Z,603.00
2023-05-12T04:57:25.506Z,602.00
2023-05-12T04:58:25.496Z,600.00
2023-05-12T04:59:25.482Z,600.00
2023-05-12T05:00:26.466Z,603.00
2023-05-12T05:01:26.498Z,605.00
2023-05-12T05:02:25.487Z,603.00
2023-05-12T05:03:26.566Z,600.00
2023-05-12T05:04:25.455Z,602.00
2023-05-12T05:05:25.442Z,603.00
2023-05-12T05:06:25.433Z,600.00
2023-05-12T05:07:26.414Z,599.00
2023-05-12T05:08:26.451Z,603.00
2023-05-12T05:09:26.407Z,623.00
2023-05-12T05:10:25.394Z,611.00
2023-05-12T05:11:26.404Z,609.00
2023-05-12T05:12:25.374Z,609.00
2023-05-12T05:13:26.370Z,609.00
2023-05-12T05:14:26.355Z,606.00
2023-05-12T05:15:25.385Z,603.00
2023-05-12T05:16:26.383Z,599.00
2023-05-12T05:17:26.436Z,593.00
2023-05-12T05:18:25.441Z,590.00
2023-05-12T05:19:35.255Z,593.00
2023-05-12T05:20:29.130Z,590.00
2023-05-12T05:21:26.339Z,584.00
2023-05-12T05:22:26.355Z,591.00
2023-05-12T05:23:25.342Z,569.00
2023-05-12T05:24:26.297Z,559.00
2023-05-12T05:25:26.301Z,567.00
2023-05-12T05:26:25.274Z,568.00
2023-05-12T05:27:26.307Z,562.00
2023-05-12T05:28:26.312Z,562.00
2023-05-12T05:29:26.253Z,562.00
2023-05-12T05:30:26.297Z,593.00
2023-05-12T05:31:25.281Z,576.00
2023-05-12T05:32:26.277Z,582.00
2023-05-12T05:33:26.247Z,578.00
2023-05-12T05:34:26.302Z,583.00
2023-05-12T05:35:26.246Z,646.00
2023-05-12T05:36:26.477Z,602.00
2023-05-12T05:37:26.182Z,600.00
2023-05-12T05:38:25.192Z,618.00
2023-05-12T05:39:26.181Z,608.00
2023-05-12T05:40:26.439Z,696.00
2023-05-12T05:41:25.168Z,691.00
2023-05-12T05:42:26.177Z,825.00
2023-05-12T05:43:25.169Z,737.00
2023-05-12T05:44:25.176Z,710.00
2023-05-12T05:45:27.645Z,824.00
2023-05-12T05:46:26.208Z,910.00
2023-05-12T05:47:25.163Z,814.00
2023-05-12T05:48:25.100Z,806.00
2023-05-12T05:49:25.134Z,860.00
2023-05-12T05:50:26.120Z,1073.00
2023-05-12T05:51:25.219Z,948.00
2023-05-12T05:52:26.157Z,1027.00
2023-05-12T05:53:26.133Z,968.00
2023-05-12T05:54:25.067Z,1048.00
2023-05-12T05:55:26.088Z,979.00
2023-05-12T05:56:25.054Z,949.00
2023-05-12T05:57:26.047Z,1494.00
2023-05-12T05:58:25.056Z,1221.00
2023-05-12T05:59:26.046Z,989.00
2023-05-12T06:00:25.086Z,979.00
2023-05-12T06:01:26.010Z,788.00
2023-05-12T06:02:26.140Z,777.00
2023-05-12T06:03:26.124Z,1105.00
2023-05-12T06:04:25.108Z,782.00
2023-05-12T06:05:26.015Z,693.00
2023-05-12T06:06:26.043Z,821.00
2023-05-12T06:07:25.979Z,737.00
2023-05-12T06:08:25.992Z,666.00
2023-05-12T06:09:25.964Z,567.00
2023-05-12T06:10:25.974Z,735.00
2023-05-12T06:11:24.978Z,886.00
2023-05-12T06:12:25.947Z,689.00
2023-05-12T06:13:25.951Z,703.00
2023-05-12T06:14:25.932Z,597.00
2023-05-12T06:15:24.925Z,589.00
2023-05-12T06:16:24.940Z,662.00
2023-05-12T06:17:25.956Z,864.00
2023-05-12T06:18:25.977Z,687.00
2023-05-12T06:19:24.901Z,690.00
2023-05-12T06:20:25.936Z,604.00
2023-05-12T06:21:24.920Z,652.00
2023-05-12T06:22:24.878Z,608.00
2023-05-12T06:23:24.893Z,606.00
2023-05-12T06:24:25.919Z,586.00
2023-05-12T06:25:25.881Z,610.00
2023-05-12T06:26:25.883Z,578.00
2023-05-12T06:27:24.952Z,552.00
2023-05-12T06:28:24.973Z,538.00
2023-05-12T06:29:24.974Z,559.00
2023-05-12T06:30:25.942Z,586.00
2023-05-12T06:31:26.037Z,537.00
2023-05-12T06:32:25.065Z,605.00
2023-05-12T06:33:25.121Z,616.00
2023-05-12T06:34:25.189Z,608.00
2023-05-12T06:35:25.222Z,595.00
2023-05-12T06:36:26.296Z,741.00
2023-05-12T06:37:25.334Z,672.00
2023-05-12T06:38:26.402Z,651.00
2023-05-12T06:39:25.507Z,709.00
2023-05-12T06:40:25.540Z,729.00
2023-05-12T06:41:25.582Z,663.00
2023-05-12T06:42:26.615Z,650.00
2023-05-12T06:43:25.706Z,593.00
2023-05-12T06:44:25.729Z,742.00
2023-05-12T06:45:26.776Z,623.00
2023-05-12T06:46:26.873Z,630.00
2023-05-12T06:47:26.902Z,624.00
2023-05-12T06:48:26.963Z,671.00
2023-05-12T06:49:26.992Z,600.00
2023-05-12T06:50:27.109Z,517.00
2023-05-12T06:51:27.106Z,480.00
2023-05-12T06:52:27.126Z,634.00
2023-05-12T06:53:26.179Z,672.00
2023-05-12T06:54:27.179Z,683.00
2023-05-12T06:55:27.179Z,658.00
2023-05-12T06:56:27.484Z,658.00
2023-05-12T06:57:26.240Z,659.00
2023-05-12T06:58:27.340Z,692.00
2023-05-12T06:59:26.376Z,684.00
2023-05-12T07:00:27.509Z,686.00
2023-05-12T07:01:26.582Z,693.00
2023-05-12T07:02:26.775Z,700.00
2023-05-12T07:03:27.647Z,704.00
2023-05-12T07:04:27.622Z,711.00
2023-05-12T07:05:27.743Z,708.00
2023-05-12T07:06:27.782Z,707.00
2023-05-12T07:07:27.730Z,707.00
2023-05-12T07:08:27.783Z,706.00
2023-05-12T07:09:26.884Z,703.00
2023-05-12T07:10:27.848Z,704.00
2023-05-12T07:11:27.904Z,708.00
2023-05-12T07:12:28.033Z,709.00
2023-05-12T07:13:26.972Z,707.00
2023-05-12T07:14:27.012Z,708.00
2023-05-12T07:15:28.825Z,709.00
2023-05-12T07:16:28.154Z,712.00
2023-05-12T07:17:28.204Z,715.00
2023-05-12T07:18:27.193Z,709.00
2023-05-12T07:19:28.200Z,712.00
2023-05-12T07:20:28.207Z,710.00
2023-05-12T07:21:28.291Z,715.00
2023-05-12T07:22:28.283Z,715.00
2023-05-12T07:23:27.297Z,718.00
2023-05-12T07:24:28.398Z,718.00
2023-05-12T07:25:28.393Z,713.00
2023-05-12T07:26:27.399Z,717.00
2023-05-12T07:27:28.354Z,718.00
2023-05-12T07:28:28.421Z,723.00
2023-05-12T07:29:28.394Z,723.00
2023-05-12T07:30:28.405Z,719.00
2023-05-12T07:31:28.484Z,716.00
2023-05-12T07:32:28.440Z,719.00
2023-05-12T07:33:27.448Z,716.00
2023-05-12T07:34:27.465Z,713.00
2023-05-12T07:35:28.451Z,713.00
2023-05-12T07:36:28.478Z,712.00
2023-05-12T07:37:28.633Z,711.00
2023-05-12T07:38:28.562Z,714.00
2023-05-12T07:39:27.508Z,713.00
2023-05-12T07:40:27.540Z,714.00
2023-05-12T07:41:27.570Z,715.00
2023-05-12T07:42:27.582Z,715.00
2023-05-12T07:43:27.545Z,718.00
2023-05-12T07:44:28.564Z,717.00
2023-05-12T07:45:27.544Z,717.00
2023-05-12T07:46:28.558Z,714.00
2023-05-12T07:47:27.556Z,723.00
2023-05-12T07:48:27.520Z,753.00
2023-05-12T07:49:27.527Z,735.00
2023-05-12T07:50:28.558Z,727.00
2023-05-12T07:51:28.003Z,709.00
2023-05-12T07:52:28.574Z,673.00
2023-05-12T07:53:28.619Z,676.00
2023-05-12T07:54:27.612Z,663.00
2023-05-12T07:55:28.662Z,668.00
2023-05-12T07:56:27.651Z,643.00
2023-05-12T07:57:28.680Z,639.00
2023-05-12T07:58:27.765Z,632.00
2023-05-12T07:59:27.774Z,632.00
2023-05-12T08:00:28.802Z,628.00
2023-05-12T08:01:28.819Z,621.00
2023-05-12T08:02:29.073Z,622.00
2023-05-12T08:03:28.089Z,626.00
2023-05-12T08:04:27.960Z,638.00
2023-05-12T08:05:28.950Z,621.00
2023-05-12T08:06:28.012Z,614.00
2023-05-12T08:07:28.002Z,611.00
2023-05-12T08:08:29.051Z,610.00
2023-05-12T08:09:29.055Z,606.00
2023-05-12T08:10:29.104Z,606.00
2023-05-12T08:11:29.082Z,608.00
2023-05-12T08:12:28.072Z,610.00
2023-05-12T08:13:29.111Z,610.00
2023-05-12T08:14:28.075Z,612.00
2023-05-12T08:15:29.092Z,618.00
2023-05-12T08:16:29.187Z,626.00
2023-05-12T08:17:29.479Z,632.00
2023-05-12T08:18:29.129Z,634.00
2023-05-12T08:19:29.097Z,633.00
2023-05-12T08:20:29.085Z,636.00
2023-05-12T08:21:28.113Z,635.00
2023-05-12T08:22:29.109Z,631.00
2023-05-12T08:23:29.084Z,631.00
2023-05-12T08:24:28.108Z,631.00
2023-05-12T08:25:28.085Z,631.00
2023-05-12T08:26:28.766Z,630.00
2023-05-12T08:27:29.081Z,626.00
2023-05-12T08:28:28.128Z,626.00
2023-05-12T08:29:28.136Z,625.00
2023-05-12T08:30:28.137Z,621.00
2023-05-12T08:31:29.373Z,617.00
2023-05-12T08:32:28.268Z,611.00
2023-05-12T08:33:28.221Z,614.00
2023-05-12T08:34:29.257Z,613.00
2023-05-12T08:35:29.322Z,614.00
2023-05-12T08:36:28.366Z,613.00
2023-05-12T08:37:29.432Z,610.00
2023-05-12T08:38:29.460Z,610.00
2023-05-12T08:39:28.514Z,609.00
2023-05-12T08:40:28.556Z,612.00
2023-05-12T08:41:29.627Z,608.00
2023-05-12T08:42:30.008Z,611.00
2023-05-12T08:43:29.757Z,608.00
2023-05-12T08:44:29.795Z,608.00
2023-05-12T08:45:29.942Z,604.00
2023-05-12T08:46:28.956Z,606.00
2023-05-12T08:47:30.333Z,603.00
2023-05-12T08:48:29.059Z,598.00
2023-05-12T08:49:29.119Z,603.00
2023-05-12T08:50:29.214Z,614.00
2023-05-12T08:51:29.259Z,643.00
2023-05-12T08:52:29.320Z,639.00
2023-05-12T08:53:29.351Z,641.00
2023-05-12T08:54:30.460Z,667.00
2023-05-12T08:55:33.523Z,649.00
2023-05-12T08:57:29.969Z,648.00
2023-05-12T08:58:40.380Z,648.00
2023-05-12T08:59:30.447Z,646.00
2023-05-12T09:00:29.450Z,649.00
2023-05-12T09:01:29.475Z,617.00
2023-05-12T09:02:40.890Z,631.00
2023-05-12T09:03:30.547Z,636.00
2023-05-12T09:04:30.551Z,627.00
2023-05-12T09:05:29.417Z,628.00
2023-05-12T09:06:29.419Z,628.00
2023-05-12T09:07:29.473Z,631.00
2023-05-12T09:08:30.388Z,667.00
2023-05-12T09:09:30.380Z,654.00
2023-05-12T09:11:29.379Z,665.00
2023-05-12T09:12:31.392Z,657.00
2023-05-12T09:13:30.405Z,641.00
2023-05-12T09:14:30.385Z,644.00
2023-05-12T09:15:29.342Z,644.00
2023-05-12T09:16:29.449Z,628.00
2023-05-12T09:17:30.468Z,621.00
2023-05-12T09:18:30.369Z,619.00
2023-05-12T09:19:30.405Z,630.00
2023-05-12T09:20:31.983Z,637.00
2023-05-12T09:21:30.300Z,662.00
2023-05-12T09:22:29.310Z,651.00
2023-05-12T09:23:30.287Z,645.00
2023-05-12T09:24:30.295Z,633.00
2023-05-12T09:25:29.256Z,622.00
2023-05-12T09:26:30.323Z,619.00
2023-05-12T09:27:30.279Z,616.00
2023-05-12T09:28:29.252Z,616.00
2023-05-12T09:29:32.521Z,615.00
2023-05-12T09:30:29.230Z,619.00
2023-05-12T09:31:29.332Z,614.00
2023-05-12T09:32:29.234Z,611.00
2023-05-12T09:33:29.221Z,608.00
2023-05-12T09:34:29.212Z,604.00
2023-05-12T09:35:30.304Z,469.00
2023-05-12T09:36:29.205Z,585.00
2023-05-12T09:37:30.237Z,575.00
2023-05-12T09:38:29.193Z,565.00
2023-05-12T09:39:30.215Z,507.00
2023-05-12T09:40:30.218Z,512.00
2023-05-12T09:41:30.244Z,564.00
2023-05-12T09:42:30.281Z,564.00
2023-05-12T09:43:29.346Z,534.00
2023-05-12T09:44:30.417Z,520.00
2023-05-12T09:45:30.402Z,441.00
2023-05-12T09:46:29.486Z,547.00
2023-05-12T09:47:30.574Z,535.00
2023-05-12T09:48:30.450Z,597.00
2023-05-12T09:49:30.507Z,510.00
2023-05-12T09:50:40.756Z,514.00
2023-05-12T09:51:30.622Z,526.00
2023-05-12T09:52:29.579Z,491.00
2023-05-12T09:53:30.503Z,489.00
2023-05-12T09:54:29.548Z,535.00
2023-05-12T09:55:30.490Z,542.00
2023-05-12T09:56:30.477Z,528.00
2023-05-12T09:57:30.486Z,505.00
2023-05-12T09:58:30.473Z,499.00
2023-05-12T09:59:30.465Z,473.00
2023-05-12T10:00:46.145Z,472.00
2023-05-12T10:01:30.450Z,491.00
2023-05-12T10:02:30.618Z,487.00
2023-05-12T10:03:30.507Z,502.00
2023-05-12T10:04:29.455Z,451.00
2023-05-12T10:05:29.412Z,489.00
2023-05-12T10:06:30.447Z,482.00
2023-05-12T10:07:30.455Z,442.00
2023-05-12T10:08:29.371Z,417.00
2023-05-12T10:09:30.376Z,444.00
2023-05-12T10:10:30.366Z,461.00
2023-05-12T10:11:29.366Z,411.00
2023-05-12T10:12:29.444Z,465.00
2023-05-12T10:13:30.443Z,433.00
2023-05-12T10:14:29.471Z,426.00
2023-05-12T10:15:30.458Z,419.00
2023-05-12T10:16:30.498Z,414.00
2023-05-12T10:17:29.515Z,418.00
2023-05-12T10:18:29.522Z,410.00
2023-05-12T10:19:30.469Z,422.00
2023-05-12T10:20:30.465Z,437.00
2023-05-12T10:21:30.460Z,405.00
2023-05-12T10:22:29.444Z,410.00
2023-05-12T10:23:30.561Z,413.00
2023-05-12T10:24:29.443Z,406.00
2023-05-12T10:25:29.445Z,369.00
2023-05-12T10:26:29.459Z,422.00
2023-05-12T10:27:30.479Z,416.00
2023-05-12T10:28:29.448Z,393.00
2023-05-12T10:29:29.490Z,398.00
2023-05-12T10:30:30.505Z,413.00
2023-05-12T10:31:30.497Z,407.00
2023-05-12T10:32:30.511Z,402.00
2023-05-12T10:33:30.513Z,406.00
2023-05-12T10:34:29.542Z,462.00
2023-05-12T10:35:30.574Z,413.00
2023-05-12T10:36:29.607Z,416.00
2023-05-12T10:37:30.690Z,449.00
2023-05-12T10:38:30.656Z,391.00
2023-05-12T10:39:29.729Z,432.00
2023-05-12T10:40:29.677Z,419.00
2023-05-12T10:41:29.679Z,416.00
2023-05-12T10:42:30.068Z,423.00
2023-05-12T10:43:29.721Z,437.00
2023-05-12T10:44:30.742Z,426.00
2023-05-12T10:45:29.783Z,504.00
2023-05-12T10:46:31.095Z,499.00
2023-05-12T10:47:31.112Z,508.00
2023-05-12T10:48:29.838Z,494.00
2023-05-12T10:49:29.801Z,558.00
2023-05-12T10:50:30.849Z,651.00
2023-05-12T10:51:29.904Z,512.00
2023-05-12T10:52:29.934Z,530.00
2023-05-12T10:53:45.191Z,524.00
2023-05-12T10:54:30.981Z,521.00
2023-05-12T10:55:30.245Z,503.00
2023-05-12T10:56:31.263Z,555.00
2023-05-12T10:57:30.195Z,535.00
2023-05-12T10:58:31.324Z,543.00
2023-05-12T10:59:30.135Z,582.00
2023-05-12T11:00:31.399Z,522.00
2023-05-12T11:01:31.661Z,596.00
2023-05-12T11:02:30.624Z,539.00
2023-05-12T11:03:30.471Z,581.00
2023-05-12T11:04:30.986Z,511.00
2023-05-12T11:05:30.294Z,507.00
2023-05-12T11:06:31.223Z,492.00
2023-05-12T11:08:30.647Z,578.00
2023-05-12T11:09:31.278Z,526.00
2023-05-12T11:10:31.327Z,473.00
2023-05-12T11:11:31.479Z,467.00
2023-05-12T11:12:30.900Z,497.00
2023-05-12T11:13:29.899Z,492.00
2023-05-12T11:14:29.890Z,499.00
2023-05-12T11:15:29.926Z,511.00
2023-05-12T11:16:30.977Z,479.00
2023-05-12T11:17:31.055Z,488.00
2023-05-12T11:18:31.042Z,465.00
2023-05-12T11:19:30.114Z,500.00
2023-05-12T11:20:31.047Z,519.00
2023-05-12T11:21:30.340Z,591.00
2023-05-12T11:22:30.270Z,518.00
2023-05-12T11:23:30.306Z,502.00
2023-05-12T11:24:31.367Z,486.00
2023-05-12T11:25:31.475Z,449.00
2023-05-12T11:26:31.482Z,464.00
2023-05-12T11:27:31.677Z,453.00
2023-05-12T11:28:31.570Z,445.00
2023-05-12T11:29:31.589Z,459.00
2023-05-12T11:30:31.622Z,470.00
2023-05-12T11:31:30.773Z,449.00
2023-05-12T11:32:31.777Z,453.00
2023-05-12T11:33:30.742Z,447.00
2023-05-12T11:34:30.781Z,538.00
2023-05-12T11:35:31.855Z,502.00
2023-05-12T11:36:31.822Z,495.00
2023-05-12T11:37:31.869Z,577.00
2023-05-12T11:38:30.933Z,559.00
2023-05-12T11:39:31.963Z,597.00
2023-05-12T11:40:30.989Z,471.00
2023-05-12T11:41:30.988Z,525.00
2023-05-12T11:42:32.080Z,484.00
2023-05-12T11:43:32.184Z,482.00
2023-05-12T11:44:32.028Z,507.00
2023-05-12T11:45:32.158Z,529.00
2023-05-12T11:46:31.252Z,499.00
2023-05-12T11:47:32.071Z,494.00
2023-05-12T11:48:32.063Z,517.00
2023-05-12T11:49:32.094Z,502.00
2023-05-12T11:50:32.091Z,485.00
2023-05-12T11:51:32.127Z,511.00
2023-05-12T11:52:32.086Z,515.00
2023-05-12T11:53:31.097Z,477.00
2023-05-12T11:54:32.113Z,526.00
2023-05-12T11:55:32.155Z,476.00
2023-05-12T11:56:32.202Z,470.00
2023-05-12T11:57:32.247Z,567.00
2023-05-12T11:59:31.325Z,504.00
2023-05-12T12:00:31.293Z,494.00
2023-05-12T12:01:31.293Z,486.00
2023-05-12T12:02:31.449Z,490.00
2023-05-12T12:03:31.405Z,476.00
2023-05-12T12:04:33.571Z,482.00
2023-05-12T12:05:32.325Z,471.00
2023-05-12T12:06:31.345Z,458.00
2023-05-12T12:07:31.396Z,433.00
2023-05-12T12:08:31.373Z,464.00
2023-05-12T12:09:32.357Z,483.00
2023-05-12T12:10:31.359Z,471.00
2023-05-12T12:11:32.408Z,469.00
2023-05-12T12:12:31.386Z,465.00
2023-05-12T12:13:32.462Z,445.00
2023-05-12T12:14:32.405Z,476.00
2023-05-12T12:15:32.484Z,524.00
2023-05-12T12:16:32.684Z,579.00
2023-05-12T12:17:32.531Z,639.00
2023-05-12T12:18:32.639Z,707.00
2023-05-12T12:19:31.582Z,719.00
2023-05-12T12:20:31.596Z,739.00
2023-05-12T12:21:32.587Z,741.00
2023-05-12T12:22:32.627Z,739.00
2023-05-12T12:23:43.878Z,745.00
2023-05-12T12:24:32.690Z,755.00
2023-05-12T12:25:31.660Z,755.00
2023-05-12T12:26:31.637Z,733.00
2023-05-12T12:27:31.635Z,717.00
2023-05-12T12:28:31.645Z,717.00
2023-05-12T12:29:32.664Z,706.00
2023-05-12T12:30:32.627Z,683.00
2023-05-12T12:31:31.707Z,685.00
2023-05-12T12:32:31.661Z,691.00
2023-05-12T12:33:32.593Z,699.00